.
WxDataArchive / Data Records for 2013-05-06
2013-05-05 May 2013 2013-05-07

Data Records for Monday, 06 May 2013

Time	Temp	Chill	HIndex	Humid	Dewpt	 Wind 	HiWind	WindDir	Rain 	Barom 
-----	----	-----	------	-----	-----	------	------	-------	-----	----- 
00:00	59.9	59.9	59.9	48	40.2	1	4	112	0.00	29.954 
00:05	59.9	59.9	59.9	48	40.2	1	4	112	0.00	29.954 
00:10	59.9	59.9	59.9	47	39.6	2	7	112	0.00	29.954 
00:15	59.9	59.9	59.9	47	39.6	1	5	112	0.00	29.952 
00:20	59.9	59.9	59.9	48	40.2	1	3	112	0.00	29.952 
00:25	59.9	59.9	59.9	48	40.2	1	5	112	0.00	29.952 
00:30	59.8	59.8	59.8	49	40.6	0	3	0	0.00	29.950 
00:35	59.6	59.6	59.6	49	40.4	1	3	112	0.00	29.950 
00:40	59.6	59.6	59.6	49	40.4	1	6	112	0.00	29.950 
00:45	59.6	59.6	59.6	50	40.9	1	3	135	0.00	29.951 
00:50	59.3	59.3	59.3	50	40.7	1	2	135	0.00	29.951 
00:55	59.3	59.3	59.3	50	40.7	1	4	112	0.00	29.951 
01:00	59.2	59.2	59.2	51	41.1	1	4	112	0.00	29.953 
01:05	59.2	59.2	59.2	51	41.1	0	4	135	0.00	29.953 
01:10	59.0	59.0	59.0	51	40.9	1	3	135	0.00	29.953 
01:15	59.0	59.0	59.0	52	41.4	1	4	135	0.00	29.951 
01:20	59.0	59.0	59.0	52	41.4	1	4	112	0.00	29.951 
01:25	58.9	58.9	58.9	52	41.3	0	2	112	0.00	29.951 
01:30	58.9	58.9	58.9	52	41.3	1	3	112	0.00	29.951 
01:35	58.9	58.9	58.9	53	41.8	1	4	112	0.00	29.951 
01:40	58.7	58.7	58.7	53	41.6	0	4	90	0.00	29.951 
01:45	58.7	58.7	58.7	54	42.1	1	4	90	0.00	29.950 
01:50	58.6	58.6	58.6	54	42.0	1	4	135	0.00	29.950 
01:55	58.4	58.4	58.4	55	42.3	1	3	135	0.00	29.950 
02:00	58.3	58.3	58.3	55	42.2	1	4	135	0.00	29.949 
02:05	58.1	58.1	58.1	56	42.5	1	3	135	0.00	29.949 
02:10	58.1	58.1	58.1	56	42.5	1	3	135	0.00	29.949 
02:15	58.0	58.0	58.0	56	42.4	1	4	135	0.00	29.948 
02:20	57.8	57.8	57.8	57	42.7	0	3	135	0.00	29.948 
02:25	57.6	57.6	57.6	57	42.5	1	3	135	0.00	29.948 
02:30	57.6	57.6	57.6	57	42.5	2	6	112	0.00	29.949 
02:35	57.5	57.5	57.5	57	42.4	1	3	112	0.00	29.949 
02:40	57.3	57.3	57.3	55	41.3	1	2	112	0.00	29.949 
02:45	57.2	57.2	57.2	58	42.6	0	2	112	0.00	29.941 
02:50	57.0	57.0	57.0	58	42.4	1	3	112	0.00	29.941 
02:55	57.0	57.0	57.0	58	42.4	1	5	135	0.00	29.941 
03:00	56.9	56.9	56.9	59	42.7	0	5	112	0.00	29.940 
03:05	56.7	56.7	56.7	59	42.5	0	2	112	0.00	29.940 
03:10	56.7	56.7	56.7	59	42.5	0	3	112	0.00	29.940 
03:15	56.6	56.6	56.6	59	42.4	0	2	112	0.00	29.938 
03:20	56.6	56.6	56.6	59	42.4	1	4	112	0.00	29.938 
03:25	56.6	56.6	56.6	59	42.4	1	4	112	0.00	29.938 
03:30	56.6	56.6	56.6	58	42.0	0	1	112	0.00	29.937 
03:35	56.6	56.6	56.6	58	42.0	0	2	112	0.00	29.937 
03:40	56.6	56.6	56.6	58	42.0	1	4	112	0.00	29.937 
03:45	56.6	56.6	56.6	58	42.0	1	5	90	0.00	29.934 
03:50	56.5	56.5	56.5	58	41.9	0	1	90	0.00	29.934 
03:55	56.3	56.3	56.3	59	42.2	1	4	158	0.00	29.934 
04:00	56.2	56.2	56.2	59	42.1	1	4	112	0.00	29.935 
04:05	56.0	56.0	56.0	60	42.3	0	2	112	0.00	29.935 
04:10	55.9	55.9	55.9	60	42.2	0	2	112	0.00	29.935 
04:15	55.6	55.6	55.6	61	42.4	0	3	112	0.00	29.935 
04:20	55.3	55.3	55.3	61	42.1	0	2	112	0.00	29.935 
04:25	55.1	55.1	55.1	61	41.9	1	4	112	0.00	29.935 
04:30	55.1	55.1	55.1	61	41.9	1	3	112	0.00	29.938 
04:35	55.0	55.0	55.0	62	42.2	0	2	112	0.00	29.938 
04:40	54.8	54.8	54.8	62	42.0	0	3	112	0.00	29.938 
04:45	54.7	54.7	54.7	63	42.4	0	1	112	0.00	29.938 
04:50	54.5	54.5	54.5	63	42.2	0	3	112	0.00	29.938 
04:55	54.4	54.4	54.4	63	42.1	0	2	112	0.00	29.938 
05:00	54.1	54.1	54.1	64	42.2	0	2	112	0.00	29.940 
05:05	53.9	53.9	53.9	64	42.0	0	3	112	0.00	29.940 
05:10	53.8	53.8	53.8	65	42.3	0	2	112	0.00	29.940 
05:15	53.6	53.6	53.6	65	42.1	0	2	112	0.00	29.941 
05:20	53.5	53.5	53.5	66	42.4	0	2	112	0.00	29.941 
05:25	53.2	53.2	53.2	66	42.1	0	0	---	0.00	29.941 
05:30	52.9	52.9	52.9	67	42.2	0	0	---	0.00	29.943 
05:35	52.8	52.8	52.8	68	42.5	0	1	112	0.00	29.943 
05:40	52.6	52.6	52.6	68	42.3	0	0	---	0.00	29.943 
05:45	52.5	52.5	52.5	69	42.6	0	1	112	0.00	29.946 
05:50	52.5	52.5	52.5	69	42.6	0	1	112	0.00	29.946 
05:55	52.5	52.5	52.5	69	42.6	0	1	112	0.00	29.946 
06:00	52.3	52.3	52.3	69	42.4	0	0	---	0.00	29.945 
06:05	52.2	52.2	52.2	69	42.3	0	0	---	0.00	29.945 
06:10	52.2	52.2	52.2	70	42.7	0	1	112	0.00	29.945 
06:15	52.2	52.2	52.2	70	42.7	0	1	112	0.00	29.948 
06:20	52.2	52.2	52.2	70	42.7	0	0	---	0.00	29.948 
06:25	52.3	52.3	52.3	70	42.8	0	1	112	0.00	29.948 
06:30	52.5	52.5	52.5	69	42.6	0	0	---	0.00	29.951 
06:35	52.5	52.5	52.5	69	42.6	0	0	---	0.00	29.951 
06:40	52.6	52.6	52.6	69	42.7	0	0	---	0.00	29.951 
06:45	52.6	52.6	52.6	69	42.7	0	0	---	0.00	29.959 
06:50	52.6	52.6	52.6	69	42.7	0	0	---	0.00	29.959 
06:55	52.6	52.6	52.6	68	42.3	0	1	112	0.00	29.959 
07:00	52.8	52.8	52.8	68	42.5	0	1	112	0.00	29.961 
07:05	52.9	52.9	52.9	67	42.2	1	3	112	0.00	29.961 
07:10	53.2	53.2	53.2	67	42.5	1	4	112	0.00	29.961 
07:15	53.3	53.3	53.3	67	42.6	0	2	112	0.00	29.966 
07:20	53.5	53.5	53.5	67	42.8	1	3	112	0.00	29.966 
07:25	53.5	53.5	53.5	67	42.8	0	3	112	0.00	29.966 
07:30	53.5	53.5	53.5	67	42.8	0	4	112	0.00	29.967 
07:35	53.8	53.8	53.8	66	42.7	0	2	112	0.00	29.967 
07:40	53.9	53.9	53.9	66	42.8	0	1	112	0.00	29.967 
07:45	54.1	54.1	54.1	65	42.6	1	4	112	0.00	29.976 
07:50	54.2	54.2	54.2	66	43.1	1	4	90	0.00	29.976 
07:55	54.4	54.4	54.4	65	42.9	1	3	90	0.00	29.976 
08:00	54.7	54.7	54.7	66	43.6	0	3	135	0.00	29.978 
08:05	54.8	54.8	54.8	65	43.3	1	5	135	0.00	29.978 
08:10	55.1	55.1	55.1	65	43.5	0	2	112	0.00	29.978 
08:15	55.4	55.4	55.4	64	43.4	1	5	135	0.00	29.986 
08:20	55.9	55.9	55.9	63	43.5	1	5	135	0.00	29.986 
08:25	56.3	56.3	56.3	63	43.9	1	3	112	0.00	29.986 
08:30	57.0	57.0	57.0	62	44.1	1	4	112	0.00	29.981 
08:35	57.6	57.6	57.6	59	43.4	2	5	112	0.00	29.981 
08:40	58.3	58.3	58.3	59	44.0	1	4	112	0.00	29.981 
08:45	58.6	58.6	58.6	58	43.9	2	6	112	0.00	29.987 
08:50	58.7	58.7	58.7	57	43.5	3	9	112	0.00	29.987 
08:55	59.2	59.2	59.2	58	44.4	1	4	112	0.00	29.987 
09:00	59.6	59.6	59.6	55	43.4	2	5	112	0.00	29.987 
09:05	59.9	59.9	59.9	52	42.2	2	6	68	0.00	29.987 
09:10	60.4	60.4	60.4	53	43.2	2	5	112	0.00	29.987 
09:15	60.1	60.1	60.1	52	42.4	3	6	112	0.00	30.003 
09:20	60.1	60.1	60.1	54	43.4	2	6	112	0.00	30.003 
09:25	61.3	61.3	61.3	58	46.4	1	4	90	0.00	30.003 
09:30	62.1	62.1	62.1	51	43.8	2	6	90	0.00	30.000 
09:35	62.6	62.6	62.6	50	43.7	1	4	90	0.00	30.000 
09:40	63.1	63.1	63.1	51	44.7	1	4	90	0.00	30.000 
09:45	63.5	63.5	63.5	51	45.0	1	6	135	0.00	29.997 
09:50	64.2	64.2	64.2	47	43.5	3	8	112	0.00	29.997 
09:55	64.7	64.7	64.7	46	43.4	1	4	112	0.00	29.997 
10:00	64.8	64.8	64.8	46	43.5	2	5	90	0.00	29.998 
10:05	65.2	65.2	65.2	45	43.3	2	7	90	0.00	29.998 
10:10	65.6	65.6	65.6	47	44.8	1	7	112	0.00	29.998 
10:15	66.0	66.0	66.0	45	44.0	2	7	112	0.00	29.993 
10:20	66.3	66.3	66.3	46	44.9	2	5	112	0.00	29.993 
10:25	66.6	66.6	66.6	44	44.0	1	5	112	0.00	29.993 
10:30	66.9	66.9	66.9	45	44.9	2	5	112	0.00	29.986 
10:35	67.3	67.3	67.3	45	45.2	2	6	112	0.00	29.986 
10:40	67.6	67.6	67.6	45	45.5	1	6	112	0.00	29.986 
10:45	67.9	67.9	67.9	47	46.9	2	6	112	0.00	29.983 
10:50	68.3	68.3	68.3	46	46.7	3	6	112	0.00	29.983 
10:55	68.3	68.3	68.3	47	47.3	3	7	90	0.00	29.983 
11:00	68.6	68.6	68.6	45	46.4	3	7	90	0.00	29.984 
11:05	69.1	69.1	69.1	46	47.4	1	5	112	0.00	29.984 
11:10	69.4	69.4	69.4	43	45.9	3	6	112	0.00	29.984 
11:15	69.3	69.3	69.3	46	47.6	1	5	112	0.00	29.982 
11:20	69.8	69.8	69.8	45	47.5	3	9	112	0.00	29.982 
11:25	70.1	70.1	70.1	46	48.3	2	5	90	0.00	29.982 
11:30	70.8	70.8	70.8	45	48.4	2	6	90	0.00	29.980 
11:35	70.6	70.6	70.6	45	48.2	4	7	90	0.00	29.980 
11:40	70.6	70.6	70.6	43	47.0	2	6	90	0.00	29.980 
11:45	70.9	70.9	70.9	45	48.5	3	7	90	0.00	29.981 
11:50	70.9	70.9	70.9	46	49.1	4	8	90	0.00	29.981 
11:55	71.5	71.5	71.5	46	49.6	1	3	112	0.00	29.981 
12:00	72.0	72.0	72.0	48	51.2	2	7	90	0.00	29.977 
12:05	72.1	72.1	72.1	45	49.6	3	7	90	0.00	29.977 
12:10	71.8	71.8	71.8	45	49.3	2	6	90	0.00	29.977 
12:15	72.3	72.3	72.3	46	50.3	1	7	90	0.00	29.976 
12:20	72.7	72.7	72.7	44	49.5	1	5	90	0.00	29.976 
12:25	73.0	73.0	73.0	44	49.8	2	4	90	0.00	29.976 
12:30	72.8	72.8	72.8	44	49.6	2	5	112	0.00	29.969 
12:35	72.5	72.5	72.5	45	49.9	3	6	90	0.00	29.969 
12:40	72.3	72.3	72.3	46	50.3	2	6	90	0.00	29.969 
12:45	71.8	71.8	71.8	44	48.7	3	9	112	0.00	29.969 
12:50	72.1	72.1	72.1	45	49.6	2	8	112	0.00	29.969 
12:55	72.5	72.5	72.5	44	49.3	3	9	112	0.00	29.969 
13:00	72.8	72.8	72.8	44	49.6	3	12	90	0.00	29.963 
13:05	72.1	72.1	72.1	44	49.0	4	7	90	0.00	29.963 
13:10	71.5	71.5	71.5	45	49.0	2	5	90	0.00	29.963 
13:15	71.5	71.5	71.5	45	49.0	2	5	90	0.00	29.964 
13:20	72.1	72.1	72.1	45	49.6	2	5	90	0.00	29.964 
13:25	72.1	72.1	72.1	46	50.2	2	4	90	0.00	29.964 
13:30	72.0	72.0	72.0	45	49.5	2	5	112	0.00	29.963 
13:35	71.5	71.5	71.5	45	49.0	3	6	68	0.00	29.963 
13:40	70.8	70.8	70.8	46	49.0	3	5	90	0.00	29.963 
13:45	70.3	70.3	70.3	46	48.5	2	5	112	0.00	29.965 
13:50	70.1	70.1	70.1	47	48.9	2	7	90	0.00	29.965 
13:55	69.8	69.8	69.8	47	48.6	3	7	90	0.00	29.965 
14:00	69.6	69.6	69.6	47	48.5	2	7	90	0.00	29.966 
14:05	69.6	69.6	69.6	47	48.5	2	7	90	0.00	29.966 
14:10	69.3	69.3	69.3	47	48.2	3	7	90	0.00	29.966 
14:15	69.3	69.3	69.3	48	48.8	2	6	90	0.00	29.968 
14:20	69.3	69.3	69.3	47	48.2	2	5	112	0.00	29.968 
14:25	69.3	69.3	69.3	47	48.2	1	3	112	0.00	29.968 
14:30	69.4	69.4	69.4	48	48.8	1	3	68	0.00	29.967 
14:35	69.4	69.4	69.4	49	49.4	1	3	135	0.00	29.967 
14:40	69.6	69.6	69.6	47	48.5	1	3	135	0.00	29.967 
14:45	69.8	69.8	69.8	47	48.6	1	4	112	0.00	29.965 
14:50	70.1	70.1	70.1	50	50.6	0	3	112	0.00	29.965 
14:55	71.3	71.3	71.3	51	52.2	1	3	112	0.00	29.965 
15:00	72.3	72.3	72.3	46	50.3	1	6	112	0.00	29.959 
15:05	73.3	73.3	73.3	46	51.3	2	5	90	0.00	29.959 
15:10	73.0	73.0	73.0	44	49.8	1	4	112	0.00	29.959 
15:15	72.0	72.0	72.0	46	50.1	1	5	112	0.00	29.961 
15:20	70.8	70.8	70.8	50	51.2	1	4	90	0.00	29.961 
15:25	70.1	70.1	70.1	49	50.0	1	2	90	0.00	29.961 
15:30	69.9	69.9	69.9	50	50.4	1	4	90	0.00	29.960 
15:35	69.6	69.6	69.6	50	50.1	2	5	112	0.00	29.960 
15:40	69.3	69.3	69.3	50	49.8	1	5	90	0.00	29.960 
15:45	69.3	69.3	69.3	51	50.4	1	4	90	0.00	29.955 
15:50	69.3	69.3	69.3	51	50.4	1	3	90	0.00	29.955 
15:55	69.6	69.6	69.6	49	49.6	0	1	90	0.00	29.955 
16:00	69.8	69.8	69.8	49	49.8	0	1	90	0.00	29.949 
16:05	69.8	69.8	69.8	48	49.2	0	2	90	0.00	29.949 
16:10	69.9	69.9	69.9	49	49.9	0	1	90	0.00	29.949 
16:15	69.9	69.9	69.9	49	49.9	0	1	90	0.00	29.944 
16:20	70.1	70.1	70.1	49	50.0	0	1	90	0.00	29.944 
16:25	70.3	70.3	70.3	50	50.8	0	2	90	0.00	29.944 
16:30	70.3	70.3	70.3	49	50.2	1	4	90	0.00	29.939 
16:35	70.4	70.4	70.4	51	51.4	0	4	90	0.00	29.939 
16:40	70.6	70.6	70.6	48	49.9	0	2	90	0.00	29.939 
16:45	70.8	70.8	70.8	50	51.2	0	3	90	0.00	29.937 
16:50	70.8	70.8	70.8	49	50.7	1	3	90	0.00	29.937 
16:55	70.9	70.9	70.9	51	51.9	0	3	90	0.00	29.937 
17:00	70.9	70.9	70.9	52	52.4	0	2	90	0.00	29.932 
17:05	70.8	70.8	70.8	50	51.2	1	2	90	0.00	29.932 
17:10	70.6	70.6	70.6	52	52.1	0	2	90	0.00	29.932 
17:15	70.4	70.4	70.4	53	52.4	0	2	90	0.00	29.932 
17:20	70.4	70.4	70.4	54	52.9	0	1	90	0.00	29.932 
17:25	70.4	70.4	70.4	53	52.4	0	1	90	0.00	29.932 
17:30	70.9	70.9	70.9	52	52.4	0	1	90	0.00	29.927 
17:35	71.6	71.6	71.6	53	53.5	0	2	90	0.00	29.927 
17:40	72.3	72.3	72.3	51	53.1	0	1	90	0.00	29.927 
17:45	72.8	72.8	72.8	48	52.0	0	1	90	0.00	29.925 
17:50	72.8	72.8	72.8	47	51.4	0	2	90	0.00	29.925 
17:55	72.7	72.7	72.7	47	51.3	1	2	90	0.00	29.925 
18:00	72.5	72.5	72.5	48	51.7	0	2	90	0.00	29.924 
18:05	72.3	72.3	72.3	48	51.5	1	3	90	0.00	29.924 
18:10	72.1	72.1	72.1	46	50.2	2	5	112	0.00	29.924 
18:15	71.8	71.8	71.8	46	49.9	1	4	112	0.00	29.926 
18:20	71.5	71.5	71.5	49	51.3	0	2	112	0.00	29.926 
18:25	70.9	70.9	70.9	49	50.8	0	1	112	0.00	29.926 
18:30	70.8	70.8	70.8	48	50.1	0	0	---	0.00	29.931 
18:35	70.8	70.8	70.8	50	51.2	0	1	112	0.00	29.931 
18:40	70.8	70.8	70.8	50	51.2	0	2	112	0.00	29.931 
18:45	70.8	70.8	70.8	50	51.2	1	3	112	0.00	29.932 
18:50	70.6	70.6	70.6	50	51.0	0	2	112	0.00	29.932 
18:55	70.6	70.6	70.6	50	51.0	0	0	---	0.00	29.932 
19:00	70.4	70.4	70.4	49	50.3	0	2	112	0.00	29.932 
19:05	70.4	70.4	70.4	45	48.0	1	3	112	0.00	29.932 
19:10	70.4	70.4	70.4	45	48.0	0	1	112	0.00	29.932 
19:15	70.4	70.4	70.4	46	48.6	0	2	112	0.00	29.928 
19:20	70.3	70.3	70.3	47	49.1	0	2	112	0.00	29.928 
19:25	70.3	70.3	70.3	47	49.1	0	2	112	0.00	29.928 
19:30	70.1	70.1	70.1	48	49.5	0	3	112	0.00	29.932 
19:35	69.9	69.9	69.9	46	48.2	1	3	112	0.00	29.932 
19:40	69.9	69.9	69.9	47	48.7	0	1	112	0.00	29.932 
19:45	69.8	69.8	69.8	46	48.1	0	2	112	0.00	29.934 
19:50	69.6	69.6	69.6	46	47.9	0	3	112	0.00	29.934 
19:55	69.4	69.4	69.4	46	47.7	0	3	112	0.00	29.934 
20:00	69.3	69.3	69.3	47	48.2	0	2	112	0.00	29.938 
20:05	69.1	69.1	69.1	48	48.6	0	1	112	0.00	29.938 
20:10	68.9	68.9	68.9	48	48.4	0	1	112	0.00	29.938 
20:15	68.8	68.8	68.8	47	47.7	0	3	112	0.00	29.936 
20:20	68.6	68.6	68.6	49	48.7	0	2	112	0.00	29.936 
20:25	68.4	68.4	68.4	49	48.5	0	3	112	0.00	29.936 
20:30	68.3	68.3	68.3	49	48.4	0	2	112	0.00	29.941 
20:35	68.1	68.1	68.1	49	48.2	0	1	112	0.00	29.941 
20:40	67.8	67.8	67.8	50	48.5	0	1	112	0.00	29.941 
20:45	67.6	67.6	67.6	51	48.8	0	0	---	0.00	29.944 
20:50	67.3	67.3	67.3	51	48.5	0	1	112	0.00	29.944 
20:55	67.1	67.1	67.1	51	48.4	0	0	---	0.00	29.944 
21:00	66.9	66.9	66.9	51	48.2	0	0	---	0.00	29.951 
21:05	66.6	66.6	66.6	53	48.9	0	0	---	0.00	29.951 
21:10	66.4	66.4	66.4	53	48.7	0	0	---	0.00	29.951 
21:15	66.3	66.3	66.3	54	49.1	0	1	112	0.00	29.949 
21:20	66.1	66.1	66.1	54	49.0	0	1	112	0.00	29.949 
21:25	66.1	66.1	66.1	54	49.0	0	1	112	0.00	29.949 
21:30	66.0	66.0	66.0	54	48.9	0	1	112	0.00	29.950 
21:35	65.8	65.8	65.8	54	48.7	0	2	112	0.00	29.950 
21:40	65.8	65.8	65.8	55	49.2	0	1	112	0.00	29.950 
21:45	65.8	65.8	65.8	54	48.7	0	2	112	0.00	29.959 
21:50	65.8	65.8	65.8	55	49.2	1	4	90	0.00	29.959 
21:55	65.8	65.8	65.8	56	49.7	1	3	90	0.00	29.959 
22:00	65.6	65.6	65.6	56	49.5	1	3	90	0.00	29.964 
22:05	65.5	65.5	65.5	56	49.4	1	3	90	0.00	29.964 
22:10	65.3	65.3	65.3	57	49.7	0	1	90	0.00	29.964 
22:15	65.0	65.0	65.0	58	49.9	1	3	90	0.00	29.963 
22:20	65.0	65.0	65.0	58	49.9	2	4	90	0.00	29.963 
22:25	64.8	64.8	64.8	58	49.7	1	3	90	0.00	29.963 
22:30	64.7	64.7	64.7	57	49.1	2	5	90	0.00	29.968 
22:35	64.7	64.7	64.7	57	49.1	2	4	135	0.00	29.968 
22:40	64.7	64.7	64.7	57	49.1	1	4	112	0.00	29.968 
22:45	64.7	64.7	64.7	56	48.6	1	4	68	0.00	29.969 
22:50	64.5	64.5	64.5	57	48.9	1	4	90	0.00	29.969 
22:55	64.3	64.3	64.3	58	49.2	0	2	90	0.00	29.969 
23:00	64.3	64.3	64.3	57	48.7	1	4	90	0.00	29.972 
23:05	64.2	64.2	64.2	59	49.6	0	1	90	0.00	29.972 
23:10	63.9	63.9	63.9	59	49.3	0	2	90	0.00	29.972 
23:15	63.7	63.7	63.7	59	49.1	0	2	90	0.00	29.969 
23:20	63.4	63.4	63.4	60	49.3	0	3	90	0.00	29.969 
23:25	63.2	63.2	63.2	60	49.1	0	1	90	0.00	29.969 
23:30	62.9	62.9	62.9	59	48.3	0	1	90	0.00	29.973 
23:35	62.7	62.7	62.7	59	48.2	1	3	90	0.00	29.973 
23:40	62.7	62.7	62.7	58	47.7	1	3	90	0.00	29.973 
23:45	62.6	62.6	62.6	58	47.6	1	4	90	0.00	29.972 
23:50	62.4	62.4	62.4	59	47.9	0	2	68	0.00	29.972 
23:55	62.3	62.3	62.3	60	48.2	0	1	68	0.00	29.972 

CoCoRaHS
IN-AL-39
A2 Web Hosting
Creative Commons License
GoDaddy
search engine by freefind advanced

loaded 2018-11-17 12:32:08 • last modified 2010-11-18 10:43:29
Privacy PolicyDisclaimer
• wx.awcolley.com is powered by PmWiki v.2002016 •
• all content (unless otherwise noted) © 2018 A W Colley